sensor_id;sensor_type;location;lat;lon;timestamp;P1;durP1;ratioP1;P2;durP2;ratioP2
20802;SDS011;10562;-33.856;151.182;2022-10-24T00:00:12;159.95;;;148.85;;
20802;SDS011;10562;-33.856;151.182;2022-10-24T00:02:46;160.13;;;147.48;;
20802;SDS011;10562;-33.856;151.182;2022-10-24T00:05:16;189.05;;;175.73;;
20802;SDS011;10562;-33.856;151.182;2022-10-24T00:07:47;204.38;;;190.50;;
20802;SDS011;10562;-33.856;151.182;2022-10-24T00:10:18;213.43;;;198.90;;
20802;SDS011;10562;-33.856;151.182;2022-10-24T00:12:49;214.48;;;200.00;;
20802;SDS011;10562;-33.856;151.182;2022-10-24T00:15:21;215.02;;;200.57;;
20802;SDS011;10562;-33.856;151.182;2022-10-24T00:17:54;209.38;;;195.13;;
20802;SDS011;10562;-33.856;151.182;2022-10-24T00:20:24;200.68;;;186.77;;
20802;SDS011;10562;-33.856;151.182;2022-10-24T00:22:55;205.15;;;191.10;;
20802;SDS011;10562;-33.856;151.182;2022-10-24T00:25:26;167.70;;;155.27;;
20802;SDS011;10562;-33.856;151.182;2022-10-24T00:27:57;176.80;;;164.02;;
20802;SDS011;10562;-33.856;151.182;2022-10-24T00:30:27;175.13;;;162.00;;
20802;SDS011;10562;-33.856;151.182;2022-10-24T00:33:00;164.85;;;152.25;;
20802;SDS011;10562;-33.856;151.182;2022-10-24T00:35:31;171.43;;;158.13;;
20802;SDS011;10562;-33.856;151.182;2022-10-24T00:38:02;158.00;;;145.68;;
20802;SDS011;10562;-33.856;151.182;2022-10-24T00:40:33;154.68;;;142.20;;
20802;SDS011;10562;-33.856;151.182;2022-10-24T00:43:08;148.25;;;135.95;;
20802;SDS011;10562;-33.856;151.182;2022-10-24T00:45:44;148.88;;;137.10;;
20802;SDS011;10562;-33.856;151.182;2022-10-24T00:48:23;153.48;;;141.82;;
20802;SDS011;10562;-33.856;151.182;2022-10-24T00:50:58;146.63;;;135.32;;
20802;SDS011;10562;-33.856;151.182;2022-10-24T00:53:33;143.27;;;131.73;;
20802;SDS011;10562;-33.856;151.182;2022-10-24T00:56:09;140.57;;;129.52;;
20802;SDS011;10562;-33.856;151.182;2022-10-24T00:58:42;140.10;;;129.15;;
20802;SDS011;10562;-33.856;151.182;2022-10-24T01:01:13;122.25;;;112.53;;
20802;SDS011;10562;-33.856;151.182;2022-10-24T01:03:46;119.30;;;109.80;;
20802;SDS011;10562;-33.856;151.182;2022-10-24T01:06:26;115.80;;;106.20;;
20802;SDS011;10562;-33.856;151.182;2022-10-24T01:09:06;107.65;;;99.13;;
20802;SDS011;10562;-33.856;151.182;2022-10-24T01:11:47;114.55;;;105.22;;
20802;SDS011;10562;-33.856;151.182;2022-10-24T01:14:35;112.60;;;103.63;;
20802;SDS011;10562;-33.856;151.182;2022-10-24T01:17:14;118.88;;;108.93;;
20802;SDS011;10562;-33.856;151.182;2022-10-24T01:19:59;119.40;;;109.60;;
20802;SDS011;10562;-33.856;151.182;2022-10-24T01:22:58;130.57;;;120.50;;
20802;SDS011;10562;-33.856;151.182;2022-10-24T01:25:45;118.53;;;108.97;;
20802;SDS011;10562;-33.856;151.182;2022-10-24T01:28:26;113.78;;;104.35;;
20802;SDS011;10562;-33.856;151.182;2022-10-24T01:31:02;113.82;;;104.25;;
20802;SDS011;10562;-33.856;151.182;2022-10-24T01:33:37;121.38;;;112.07;;
20802;SDS011;10562;-33.856;151.182;2022-10-24T01:36:14;104.10;;;96.20;;
20802;SDS011;10562;-33.856;151.182;2022-10-24T01:38:49;94.80;;;86.43;;
20802;SDS011;10562;-33.856;151.182;2022-10-24T01:41:25;89.43;;;82.45;;
20802;SDS011;10562;-33.856;151.182;2022-10-24T01:43:59;91.22;;;83.72;;
20802;SDS011;10562;-33.856;151.182;2022-10-24T01:46:36;102.05;;;93.43;;
20802;SDS011;10562;-33.856;151.182;2022-10-24T01:49:12;101.13;;;93.25;;
20802;SDS011;10562;-33.856;151.182;2022-10-24T01:51:45;91.40;;;84.38;;
20802;SDS011;10562;-33.856;151.182;2022-10-24T01:54:20;77.90;;;71.43;;
20802;SDS011;10562;-33.856;151.182;2022-10-24T01:56:51;89.50;;;82.68;;
20802;SDS011;10562;-33.856;151.182;2022-10-24T02:02:25;89.70;;;81.22;;
20802;SDS011;10562;-33.856;151.182;2022-10-24T02:05:00;78.38;;;71.45;;
20802;SDS011;10562;-33.856;151.182;2022-10-24T02:07:35;57.80;;;52.42;;
20802;SDS011;10562;-33.856;151.182;2022-10-24T02:10:09;64.82;;;58.20;;
20802;SDS011;10562;-33.856;151.182;2022-10-24T02:12:46;46.55;;;41.78;;
20802;SDS011;10562;-33.856;151.182;2022-10-24T02:15:20;38.60;;;34.60;;
20802;SDS011;10562;-33.856;151.182;2022-10-24T02:17:56;32.58;;;29.15;;
20802;SDS011;10562;-33.856;151.182;2022-10-24T02:20:28;29.42;;;26.35;;
20802;SDS011;10562;-33.856;151.182;2022-10-24T02:23:04;28.05;;;25.10;;
20802;SDS011;10562;-33.856;151.182;2022-10-24T02:25:39;19.13;;;13.95;;
20802;SDS011;10562;-33.856;151.182;2022-10-24T02:28:15;16.95;;;15.18;;
20802;SDS011;10562;-33.856;151.182;2022-10-24T02:30:51;23.67;;;17.73;;
20802;SDS011;10562;-33.856;151.182;2022-10-24T02:33:26;20.50;;;17.02;;
20802;SDS011;10562;-33.856;151.182;2022-10-24T02:35:59;17.95;;;16.05;;
20802;SDS011;10562;-33.856;151.182;2022-10-24T02:38:31;21.40;;;15.75;;
20802;SDS011;10562;-33.856;151.182;2022-10-24T02:41:06;18.50;;;14.88;;
20802;SDS011;10562;-33.856;151.182;2022-10-24T02:43:39;24.13;;;20.02;;
20802;SDS011;10562;-33.856;151.182;2022-10-24T02:46:11;22.25;;;17.50;;
20802;SDS011;10562;-33.856;151.182;2022-10-24T02:48:46;22.75;;;19.88;;
20802;SDS011;10562;-33.856;151.182;2022-10-24T02:51:21;19.02;;;17.02;;
20802;SDS011;10562;-33.856;151.182;2022-10-24T02:53:55;23.70;;;21.50;;
20802;SDS011;10562;-33.856;151.182;2022-10-24T02:56:27;21.42;;;19.23;;
20802;SDS011;10562;-33.856;151.182;2022-10-24T02:58:59;22.83;;;20.27;;
20802;SDS011;10562;-33.856;151.182;2022-10-24T03:01:30;24.20;;;21.60;;
20802;SDS011;10562;-33.856;151.182;2022-10-24T03:04:03;21.33;;;19.02;;
20802;SDS011;10562;-33.856;151.182;2022-10-24T03:06:34;23.15;;;20.92;;
20802;SDS011;10562;-33.856;151.182;2022-10-24T03:09:04;20.67;;;18.52;;
20802;SDS011;10562;-33.856;151.182;2022-10-24T03:11:35;26.08;;;23.55;;
20802;SDS011;10562;-33.856;151.182;2022-10-24T03:14:06;25.25;;;22.60;;
20802;SDS011;10562;-33.856;151.182;2022-10-24T03:16:37;27.02;;;24.33;;
20802;SDS011;10562;-33.856;151.182;2022-10-24T03:19:10;27.88;;;25.23;;
20802;SDS011;10562;-33.856;151.182;2022-10-24T03:21:40;34.80;;;31.27;;
20802;SDS011;10562;-33.856;151.182;2022-10-24T03:24:11;33.13;;;29.92;;
20802;SDS011;10562;-33.856;151.182;2022-10-24T03:26:42;30.63;;;27.77;;
20802;SDS011;10562;-33.856;151.182;2022-10-24T03:29:13;32.53;;;29.63;;
20802;SDS011;10562;-33.856;151.182;2022-10-24T03:31:44;42.47;;;39.05;;
20802;SDS011;10562;-33.856;151.182;2022-10-24T03:34:17;39.83;;;36.75;;
20802;SDS011;10562;-33.856;151.182;2022-10-24T03:36:47;35.20;;;32.40;;
20802;SDS011;10562;-33.856;151.182;2022-10-24T03:39:18;26.95;;;24.77;;
20802;SDS011;10562;-33.856;151.182;2022-10-24T03:41:49;22.63;;;20.70;;
20802;SDS011;10562;-33.856;151.182;2022-10-24T03:44:20;22.30;;;20.30;;
20802;SDS011;10562;-33.856;151.182;2022-10-24T03:46:50;23.55;;;21.75;;
20802;SDS011;10562;-33.856;151.182;2022-10-24T03:49:23;26.17;;;24.02;;
20802;SDS011;10562;-33.856;151.182;2022-10-24T03:51:54;26.83;;;24.58;;
20802;SDS011;10562;-33.856;151.182;2022-10-24T03:54:25;29.00;;;26.65;;
20802;SDS011;10562;-33.856;151.182;2022-10-24T03:56:56;33.08;;;30.15;;
20802;SDS011;10562;-33.856;151.182;2022-10-24T03:59:26;34.65;;;32.00;;
20802;SDS011;10562;-33.856;151.182;2022-10-24T04:01:57;32.78;;;30.15;;
20802;SDS011;10562;-33.856;151.182;2022-10-24T04:04:30;31.58;;;29.00;;
20802;SDS011;10562;-33.856;151.182;2022-10-24T04:07:01;31.55;;;29.02;;
20802;SDS011;10562;-33.856;151.182;2022-10-24T04:09:31;27.92;;;25.50;;
20802;SDS011;10562;-33.856;151.182;2022-10-24T04:12:02;31.60;;;29.15;;
20802;SDS011;10562;-33.856;151.182;2022-10-24T04:14:33;23.40;;;21.50;;
20802;SDS011;10562;-33.856;151.182;2022-10-24T04:17:04;33.83;;;31.20;;
20802;SDS011;10562;-33.856;151.182;2022-10-24T04:19:37;35.58;;;32.58;;
20802;SDS011;10562;-33.856;151.182;2022-10-24T04:22:08;34.65;;;31.85;;
20802;SDS011;10562;-33.856;151.182;2022-10-24T04:24:40;39.42;;;35.90;;
20802;SDS011;10562;-33.856;151.182;2022-10-24T04:27:10;39.97;;;36.65;;
20802;SDS011;10562;-33.856;151.182;2022-10-24T04:29:41;42.72;;;39.47;;
20802;SDS011;10562;-33.856;151.182;2022-10-24T04:32:12;45.55;;;42.13;;
20802;SDS011;10562;-33.856;151.182;2022-10-24T04:34:44;49.95;;;46.13;;
20802;SDS011;10562;-33.856;151.182;2022-10-24T04:37:15;43.50;;;39.72;;
20802;SDS011;10562;-33.856;151.182;2022-10-24T04:39:46;52.53;;;48.60;;
20802;SDS011;10562;-33.856;151.182;2022-10-24T04:42:18;54.50;;;50.10;;
20802;SDS011;10562;-33.856;151.182;2022-10-24T04:44:49;59.10;;;54.10;;
20802;SDS011;10562;-33.856;151.182;2022-10-24T04:47:20;63.97;;;58.88;;
20802;SDS011;10562;-33.856;151.182;2022-10-24T04:49:53;63.03;;;57.83;;
20802;SDS011;10562;-33.856;151.182;2022-10-24T04:52:23;61.53;;;56.25;;
20802;SDS011;10562;-33.856;151.182;2022-10-24T04:54:54;64.45;;;58.83;;
20802;SDS011;10562;-33.856;151.182;2022-10-24T04:57:25;61.75;;;56.78;;
20802;SDS011;10562;-33.856;151.182;2022-10-24T04:59:56;56.45;;;51.75;;
20802;SDS011;10562;-33.856;151.182;2022-10-24T05:02:26;50.15;;;46.03;;
20802;SDS011;10562;-33.856;151.182;2022-10-24T05:04:59;49.03;;;44.92;;
20802;SDS011;10562;-33.856;151.182;2022-10-24T05:07:30;47.70;;;43.83;;
20802;SDS011;10562;-33.856;151.182;2022-10-24T05:10:01;46.45;;;42.75;;
20802;SDS011;10562;-33.856;151.182;2022-10-24T05:12:32;43.03;;;39.33;;
20802;SDS011;10562;-33.856;151.182;2022-10-24T05:15:03;39.67;;;36.58;;
20802;SDS011;10562;-33.856;151.182;2022-10-24T05:17:34;36.88;;;33.97;;
20802;SDS011;10562;-33.856;151.182;2022-10-24T05:20:07;36.72;;;33.85;;
20802;SDS011;10562;-33.856;151.182;2022-10-24T05:22:38;34.75;;;32.08;;
20802;SDS011;10562;-33.856;151.182;2022-10-24T05:25:09;31.88;;;29.25;;
20802;SDS011;10562;-33.856;151.182;2022-10-24T05:27:40;32.95;;;30.15;;
20802;SDS011;10562;-33.856;151.182;2022-10-24T05:30:11;37.13;;;34.22;;
20802;SDS011;10562;-33.856;151.182;2022-10-24T05:32:42;38.65;;;35.75;;
20802;SDS011;10562;-33.856;151.182;2022-10-24T05:35:15;39.50;;;36.65;;
20802;SDS011;10562;-33.856;151.182;2022-10-24T05:37:46;43.17;;;39.97;;
20802;SDS011;10562;-33.856;151.182;2022-10-24T05:40:16;39.00;;;35.97;;
20802;SDS011;10562;-33.856;151.182;2022-10-24T05:42:47;43.20;;;39.97;;
20802;SDS011;10562;-33.856;151.182;2022-10-24T05:45:18;44.38;;;40.97;;
20802;SDS011;10562;-33.856;151.182;2022-10-24T05:47:49;44.30;;;40.90;;
20802;SDS011;10562;-33.856;151.182;2022-10-24T05:50:21;45.03;;;41.70;;
20802;SDS011;10562;-33.856;151.182;2022-10-24T05:52:52;40.13;;;36.85;;
20802;SDS011;10562;-33.856;151.182;2022-10-24T05:55:23;39.75;;;36.63;;
20802;SDS011;10562;-33.856;151.182;2022-10-24T05:57:54;41.00;;;37.78;;
20802;SDS011;10562;-33.856;151.182;2022-10-24T06:00:24;36.35;;;33.55;;
20802;SDS011;10562;-33.856;151.182;2022-10-24T06:02:55;31.33;;;28.83;;
20802;SDS011;10562;-33.856;151.182;2022-10-24T06:05:28;26.02;;;24.02;;
20802;SDS011;10562;-33.856;151.182;2022-10-24T06:07:59;28.60;;;26.48;;
20802;SDS011;10562;-33.856;151.182;2022-10-24T06:10:30;33.58;;;30.98;;
20802;SDS011;10562;-33.856;151.182;2022-10-24T06:13:00;24.70;;;22.65;;
20802;SDS011;10562;-33.856;151.182;2022-10-24T06:15:31;24.85;;;22.85;;
20802;SDS011;10562;-33.856;151.182;2022-10-24T06:18:02;22.83;;;21.02;;
20802;SDS011;10562;-33.856;151.182;2022-10-24T06:20:35;35.08;;;32.30;;
20802;SDS011;10562;-33.856;151.182;2022-10-24T06:23:06;32.75;;;30.00;;
20802;SDS011;10562;-33.856;151.182;2022-10-24T06:25:38;28.85;;;26.65;;
20802;SDS011;10562;-33.856;151.182;2022-10-24T06:28:09;32.35;;;29.65;;
20802;SDS011;10562;-33.856;151.182;2022-10-24T06:30:40;33.20;;;30.80;;
20802;SDS011;10562;-33.856;151.182;2022-10-24T06:33:13;37.90;;;34.95;;
20802;SDS011;10562;-33.856;151.182;2022-10-24T06:35:46;33.80;;;31.20;;
20802;SDS011;10562;-33.856;151.182;2022-10-24T06:38:17;40.80;;;37.70;;
20802;SDS011;10562;-33.856;151.182;2022-10-24T06:40:48;39.65;;;36.75;;
20802;SDS011;10562;-33.856;151.182;2022-10-24T06:43:19;43.88;;;40.45;;
20802;SDS011;10562;-33.856;151.182;2022-10-24T06:45:49;41.53;;;38.03;;
20802;SDS011;10562;-33.856;151.182;2022-10-24T06:48:20;42.63;;;38.95;;
20802;SDS011;10562;-33.856;151.182;2022-10-24T06:50:53;41.08;;;37.97;;
20802;SDS011;10562;-33.856;151.182;2022-10-24T06:53:24;44.03;;;40.25;;
20802;SDS011;10562;-33.856;151.182;2022-10-24T06:55:57;46.40;;;42.58;;
20802;SDS011;10562;-33.856;151.182;2022-10-24T06:58:30;40.72;;;37.42;;
20802;SDS011;10562;-33.856;151.182;2022-10-24T07:01:06;50.58;;;46.45;;
20802;SDS011;10562;-33.856;151.182;2022-10-24T07:03:37;56.83;;;52.22;;
20802;SDS011;10562;-33.856;151.182;2022-10-24T07:06:13;61.08;;;55.78;;
20802;SDS011;10562;-33.856;151.182;2022-10-24T07:08:45;59.08;;;54.28;;
20802;SDS011;10562;-33.856;151.182;2022-10-24T07:11:15;55.97;;;51.70;;
20802;SDS011;10562;-33.856;151.182;2022-10-24T07:13:46;61.00;;;56.10;;
20802;SDS011;10562;-33.856;151.182;2022-10-24T07:16:17;55.75;;;51.63;;
20802;SDS011;10562;-33.856;151.182;2022-10-24T07:18:48;63.58;;;58.25;;
20802;SDS011;10562;-33.856;151.182;2022-10-24T07:21:22;62.60;;;57.63;;
20802;SDS011;10562;-33.856;151.182;2022-10-24T07:23:54;63.83;;;58.58;;
20802;SDS011;10562;-33.856;151.182;2022-10-24T07:26:26;59.97;;;54.67;;
20802;SDS011;10562;-33.856;151.182;2022-10-24T07:28:57;47.08;;;42.47;;
20802;SDS011;10562;-33.856;151.182;2022-10-24T07:31:29;49.30;;;45.00;;
20802;SDS011;10562;-33.856;151.182;2022-10-24T07:34:02;58.17;;;53.83;;
20802;SDS011;10562;-33.856;151.182;2022-10-24T07:36:36;66.72;;;61.33;;
20802;SDS011;10562;-33.856;151.182;2022-10-24T07:39:07;41.70;;;38.30;;
20802;SDS011;10562;-33.856;151.182;2022-10-24T07:41:39;39.85;;;36.58;;
20802;SDS011;10562;-33.856;151.182;2022-10-24T07:44:09;45.92;;;42.15;;
20802;SDS011;10562;-33.856;151.182;2022-10-24T07:46:40;58.95;;;54.00;;
20802;SDS011;10562;-33.856;151.182;2022-10-24T07:49:11;65.45;;;60.10;;
20802;SDS011;10562;-33.856;151.182;2022-10-24T07:51:44;70.45;;;64.85;;
20802;SDS011;10562;-33.856;151.182;2022-10-24T07:54:14;71.75;;;65.63;;
20802;SDS011;10562;-33.856;151.182;2022-10-24T07:56:45;77.20;;;70.75;;
20802;SDS011;10562;-33.856;151.182;2022-10-24T07:59:16;78.30;;;71.85;;
20802;SDS011;10562;-33.856;151.182;2022-10-24T08:01:47;71.80;;;66.03;;
20802;SDS011;10562;-33.856;151.182;2022-10-24T08:04:17;78.15;;;72.15;;
20802;SDS011;10562;-33.856;151.182;2022-10-24T08:06:50;58.92;;;53.88;;
20802;SDS011;10562;-33.856;151.182;2022-10-24T08:09:21;58.40;;;53.70;;
20802;SDS011;10562;-33.856;151.182;2022-10-24T08:11:52;56.65;;;51.70;;
20802;SDS011;10562;-33.856;151.182;2022-10-24T08:14:23;59.88;;;55.05;;
20802;SDS011;10562;-33.856;151.182;2022-10-24T08:16:53;60.58;;;55.55;;
20802;SDS011;10562;-33.856;151.182;2022-10-24T08:19:24;64.15;;;58.92;;
20802;SDS011;10562;-33.856;151.182;2022-10-24T08:21:57;61.65;;;56.20;;
20802;SDS011;10562;-33.856;151.182;2022-10-24T08:24:28;67.15;;;61.53;;
20802;SDS011;10562;-33.856;151.182;2022-10-24T08:26:59;71.35;;;64.95;;
20802;SDS011;10562;-33.856;151.182;2022-10-24T08:29:30;65.55;;;60.17;;
20802;SDS011;10562;-33.856;151.182;2022-10-24T08:32:01;64.35;;;58.83;;
20802;SDS011;10562;-33.856;151.182;2022-10-24T08:34:32;63.63;;;58.55;;
20802;SDS011;10562;-33.856;151.182;2022-10-24T08:37:05;65.50;;;60.30;;
20802;SDS011;10562;-33.856;151.182;2022-10-24T08:39:37;64.95;;;59.75;;
20802;SDS011;10562;-33.856;151.182;2022-10-24T08:42:10;64.00;;;58.97;;
20802;SDS011;10562;-33.856;151.182;2022-10-24T08:44:44;64.22;;;58.75;;
20802;SDS011;10562;-33.856;151.182;2022-10-24T08:47:17;63.13;;;58.22;;
20802;SDS011;10562;-33.856;151.182;2022-10-24T08:49:56;57.38;;;52.50;;
20802;SDS011;10562;-33.856;151.182;2022-10-24T08:52:34;60.05;;;55.25;;
20802;SDS011;10562;-33.856;151.182;2022-10-24T08:55:10;65.88;;;60.15;;
20802;SDS011;10562;-33.856;151.182;2022-10-24T08:57:44;63.58;;;58.50;;
20802;SDS011;10562;-33.856;151.182;2022-10-24T09:00:20;63.70;;;58.65;;
20802;SDS011;10562;-33.856;151.182;2022-10-24T09:02:54;61.50;;;56.63;;
20802;SDS011;10562;-33.856;151.182;2022-10-24T09:05:30;67.25;;;61.63;;
20802;SDS011;10562;-33.856;151.182;2022-10-24T09:08:09;59.67;;;54.85;;
20802;SDS011;10562;-33.856;151.182;2022-10-24T09:10:52;64.88;;;59.60;;
20802;SDS011;10562;-33.856;151.182;2022-10-24T09:13:25;64.45;;;59.47;;
20802;SDS011;10562;-33.856;151.182;2022-10-24T09:15:57;70.13;;;64.53;;
20802;SDS011;10562;-33.856;151.182;2022-10-24T09:18:29;64.57;;;58.63;;
20802;SDS011;10562;-33.856;151.182;2022-10-24T09:21:02;63.00;;;58.03;;
20802;SDS011;10562;-33.856;151.182;2022-10-24T09:23:38;64.40;;;59.40;;
20802;SDS011;10562;-33.856;151.182;2022-10-24T09:26:12;66.65;;;61.47;;
20802;SDS011;10562;-33.856;151.182;2022-10-24T09:28:46;63.10;;;58.08;;
20802;SDS011;10562;-33.856;151.182;2022-10-24T09:31:18;65.97;;;60.85;;
20802;SDS011;10562;-33.856;151.182;2022-10-24T09:33:52;63.97;;;58.70;;
20802;SDS011;10562;-33.856;151.182;2022-10-24T09:36:27;66.93;;;61.95;;
20802;SDS011;10562;-33.856;151.182;2022-10-24T09:39:13;63.58;;;58.47;;
20802;SDS011;10562;-33.856;151.182;2022-10-24T09:41:53;62.38;;;57.65;;
20802;SDS011;10562;-33.856;151.182;2022-10-24T09:44:32;64.38;;;59.60;;
20802;SDS011;10562;-33.856;151.182;2022-10-24T09:47:07;63.50;;;58.53;;
20802;SDS011;10562;-33.856;151.182;2022-10-24T09:49:52;65.68;;;60.85;;
20802;SDS011;10562;-33.856;151.182;2022-10-24T09:52:24;65.70;;;60.35;;
20802;SDS011;10562;-33.856;151.182;2022-10-24T09:55:14;67.82;;;62.92;;
20802;SDS011;10562;-33.856;151.182;2022-10-24T09:57:47;66.97;;;62.13;;
20802;SDS011;10562;-33.856;151.182;2022-10-24T10:00:24;70.97;;;65.35;;
20802;SDS011;10562;-33.856;151.182;2022-10-24T10:02:57;73.88;;;68.47;;
20802;SDS011;10562;-33.856;151.182;2022-10-24T10:05:30;71.75;;;66.32;;
20802;SDS011;10562;-33.856;151.182;2022-10-24T10:08:14;76.20;;;70.57;;
20802;SDS011;10562;-33.856;151.182;2022-10-24T10:13:42;75.07;;;69.43;;
20802;SDS011;10562;-33.856;151.182;2022-10-24T10:16:22;81.45;;;75.20;;
20802;SDS011;10562;-33.856;151.182;2022-10-24T10:19:00;93.78;;;86.90;;
20802;SDS011;10562;-33.856;151.182;2022-10-24T10:24:26;95.38;;;88.20;;
20802;SDS011;10562;-33.856;151.182;2022-10-24T10:27:27;96.93;;;89.60;;
20802;SDS011;10562;-33.856;151.182;2022-10-24T10:30:17;89.90;;;82.80;;
20802;SDS011;10562;-33.856;151.182;2022-10-24T10:32:52;97.80;;;90.40;;
20802;SDS011;10562;-33.856;151.182;2022-10-24T10:35:35;91.25;;;84.30;;
20802;SDS011;10562;-33.856;151.182;2022-10-24T10:38:15;89.57;;;82.80;;
20802;SDS011;10562;-33.856;151.182;2022-10-24T10:41:02;84.95;;;78.47;;
20802;SDS011;10562;-33.856;151.182;2022-10-24T10:43:42;87.47;;;80.55;;
20802;SDS011;10562;-33.856;151.182;2022-10-24T10:46:24;87.63;;;80.45;;
20802;SDS011;10562;-33.856;151.182;2022-10-24T10:49:02;87.00;;;80.15;;
20802;SDS011;10562;-33.856;151.182;2022-10-24T10:51:42;88.93;;;82.18;;
20802;SDS011;10562;-33.856;151.182;2022-10-24T10:54:23;94.93;;;87.82;;
20802;SDS011;10562;-33.856;151.182;2022-10-24T10:57:11;98.65;;;91.65;;
20802;SDS011;10562;-33.856;151.182;2022-10-24T10:59:49;96.05;;;88.40;;
20802;SDS011;10562;-33.856;151.182;2022-10-24T11:05:27;97.53;;;89.80;;
20802;SDS011;10562;-33.856;151.182;2022-10-24T11:08:09;93.70;;;87.07;;
20802;SDS011;10562;-33.856;151.182;2022-10-24T11:10:55;87.53;;;80.93;;
20802;SDS011;10562;-33.856;151.182;2022-10-24T11:13:30;88.40;;;81.88;;
20802;SDS011;10562;-33.856;151.182;2022-10-24T11:16:09;93.60;;;86.40;;
20802;SDS011;10562;-33.856;151.182;2022-10-24T11:18:45;98.32;;;90.95;;
20802;SDS011;10562;-33.856;151.182;2022-10-24T11:21:19;145.13;;;132.75;;
20802;SDS011;10562;-33.856;151.182;2022-10-24T11:23:53;99.38;;;92.18;;
20802;SDS011;10562;-33.856;151.182;2022-10-24T11:26:27;93.07;;;86.18;;
20802;SDS011;10562;-33.856;151.182;2022-10-24T11:29:01;98.75;;;91.60;;
20802;SDS011;10562;-33.856;151.182;2022-10-24T11:31:41;100.57;;;93.53;;
20802;SDS011;10562;-33.856;151.182;2022-10-24T11:34:16;112.85;;;104.43;;
20802;SDS011;10562;-33.856;151.182;2022-10-24T11:36:54;94.60;;;87.90;;
20802;SDS011;10562;-33.856;151.182;2022-10-24T11:39:31;99.50;;;92.22;;
20802;SDS011;10562;-33.856;151.182;2022-10-24T11:42:10;105.10;;;97.47;;
20802;SDS011;10562;-33.856;151.182;2022-10-24T11:44:46;98.57;;;91.45;;
20802;SDS011;10562;-33.856;151.182;2022-10-24T11:47:36;103.47;;;96.25;;
20802;SDS011;10562;-33.856;151.182;2022-10-24T11:50:17;146.40;;;134.27;;
20802;SDS011;10562;-33.856;151.182;2022-10-24T11:52:55;106.80;;;99.28;;
20802;SDS011;10562;-33.856;151.182;2022-10-24T11:55:33;111.72;;;103.55;;
20802;SDS011;10562;-33.856;151.182;2022-10-24T11:58:09;106.15;;;98.72;;
20802;SDS011;10562;-33.856;151.182;2022-10-24T12:00:51;104.43;;;97.25;;
20802;SDS011;10562;-33.856;151.182;2022-10-24T12:03:44;100.35;;;93.07;;
20802;SDS011;10562;-33.856;151.182;2022-10-24T12:07:01;97.72;;;90.53;;
20802;SDS011;10562;-33.856;151.182;2022-10-24T12:09:51;143.23;;;131.43;;
20802;SDS011;10562;-33.856;151.182;2022-10-24T12:12:46;87.82;;;81.13;;
20802;SDS011;10562;-33.856;151.182;2022-10-24T12:15:34;88.55;;;82.35;;
20802;SDS011;10562;-33.856;151.182;2022-10-24T12:18:22;91.95;;;85.25;;
20802;SDS011;10562;-33.856;151.182;2022-10-24T12:21:02;98.03;;;91.25;;
20802;SDS011;10562;-33.856;151.182;2022-10-24T12:23:35;90.53;;;84.05;;
20802;SDS011;10562;-33.856;151.182;2022-10-24T12:26:14;111.53;;;103.13;;
20802;SDS011;10562;-33.856;151.182;2022-10-24T12:28:52;96.43;;;89.68;;
20802;SDS011;10562;-33.856;151.182;2022-10-24T12:31:26;90.25;;;83.53;;
20802;SDS011;10562;-33.856;151.182;2022-10-24T12:37:22;97.95;;;91.00;;
20802;SDS011;10562;-33.856;151.182;2022-10-24T12:43:14;105.47;;;98.15;;
20802;SDS011;10562;-33.856;151.182;2022-10-24T12:45:55;104.25;;;96.85;;
20802;SDS011;10562;-33.856;151.182;2022-10-24T12:48:31;104.40;;;97.15;;
20802;SDS011;10562;-33.856;151.182;2022-10-24T12:54:03;104.38;;;97.03;;
20802;SDS011;10562;-33.856;151.182;2022-10-24T12:59:48;106.72;;;99.28;;
20802;SDS011;10562;-33.856;151.182;2022-10-24T13:02:25;103.07;;;95.75;;
20802;SDS011;10562;-33.856;151.182;2022-10-24T13:05:15;107.10;;;99.72;;
20802;SDS011;10562;-33.856;151.182;2022-10-24T13:08:00;100.47;;;93.35;;
20802;SDS011;10562;-33.856;151.182;2022-10-24T13:10:46;134.70;;;124.15;;
20802;SDS011;10562;-33.856;151.182;2022-10-24T13:13:31;98.35;;;91.57;;
20802;SDS011;10562;-33.856;151.182;2022-10-24T13:16:13;102.20;;;94.95;;
20802;SDS011;10562;-33.856;151.182;2022-10-24T13:18:56;100.20;;;93.13;;
20802;SDS011;10562;-33.856;151.182;2022-10-24T13:21:43;103.93;;;96.78;;
20802;SDS011;10562;-33.856;151.182;2022-10-24T13:24:23;99.65;;;92.55;;
20802;SDS011;10562;-33.856;151.182;2022-10-24T13:29:59;99.57;;;92.43;;
20802;SDS011;10562;-33.856;151.182;2022-10-24T13:32:51;98.72;;;91.70;;
20802;SDS011;10562;-33.856;151.182;2022-10-24T13:36:08;101.13;;;94.07;;
20802;SDS011;10562;-33.856;151.182;2022-10-24T13:38:45;107.22;;;99.88;;
20802;SDS011;10562;-33.856;151.182;2022-10-24T13:41:20;108.07;;;100.30;;
20802;SDS011;10562;-33.856;151.182;2022-10-24T13:43:59;112.03;;;104.18;;
20802;SDS011;10562;-33.856;151.182;2022-10-24T13:46:37;114.93;;;106.90;;
20802;SDS011;10562;-33.856;151.182;2022-10-24T13:49:12;109.63;;;101.53;;
20802;SDS011;10562;-33.856;151.182;2022-10-24T13:51:51;110.75;;;103.03;;
20802;SDS011;10562;-33.856;151.182;2022-10-24T13:54:23;122.75;;;113.13;;
20802;SDS011;10562;-33.856;151.182;2022-10-24T13:56:58;104.47;;;96.57;;
20802;SDS011;10562;-33.856;151.182;2022-10-24T13:59:32;115.30;;;107.07;;
20802;SDS011;10562;-33.856;151.182;2022-10-24T14:02:04;110.53;;;102.00;;
20802;SDS011;10562;-33.856;151.182;2022-10-24T14:04:44;114.30;;;106.03;;
20802;SDS011;10562;-33.856;151.182;2022-10-24T14:07:17;106.85;;;99.03;;
20802;SDS011;10562;-33.856;151.182;2022-10-24T14:09:52;105.78;;;97.65;;
20802;SDS011;10562;-33.856;151.182;2022-10-24T14:12:27;111.35;;;103.35;;
20802;SDS011;10562;-33.856;151.182;2022-10-24T14:15:03;111.43;;;103.15;;
20802;SDS011;10562;-33.856;151.182;2022-10-24T14:17:51;115.18;;;106.70;;
20802;SDS011;10562;-33.856;151.182;2022-10-24T14:20:24;120.38;;;111.50;;
20802;SDS011;10562;-33.856;151.182;2022-10-24T14:22:57;116.10;;;107.55;;
20802;SDS011;10562;-33.856;151.182;2022-10-24T14:25:31;116.28;;;107.78;;
20802;SDS011;10562;-33.856;151.182;2022-10-24T14:28:09;123.28;;;114.32;;
20802;SDS011;10562;-33.856;151.182;2022-10-24T14:30:53;117.18;;;108.68;;
20802;SDS011;10562;-33.856;151.182;2022-10-24T14:33:25;117.93;;;108.78;;
20802;SDS011;10562;-33.856;151.182;2022-10-24T14:35:57;157.57;;;144.35;;
20802;SDS011;10562;-33.856;151.182;2022-10-24T14:38:30;120.90;;;111.80;;
20802;SDS011;10562;-33.856;151.182;2022-10-24T14:41:02;112.63;;;104.05;;
20802;SDS011;10562;-33.856;151.182;2022-10-24T14:43:35;109.13;;;100.88;;
20802;SDS011;10562;-33.856;151.182;2022-10-24T14:46:20;111.78;;;103.32;;
20802;SDS011;10562;-33.856;151.182;2022-10-24T14:49:11;115.40;;;106.53;;